sensor_id;sensor_type;location;lat;lon;timestamp;pressure;altitude;pressure_sealevel;temperature;humidity
30516;BME280;17297;54.022;10.760;2023-04-20T00:00:54;102451.56;;;10.23;54.21
30516;BME280;17297;54.022;10.760;2023-04-20T00:03:21;102444.19;;;10.25;54.29
30516;BME280;17297;54.022;10.760;2023-04-20T00:05:46;102451.38;;;10.07;54.26
30516;BME280;17297;54.022;10.760;2023-04-20T00:08:14;102424.22;;;10.00;54.55
30516;BME280;17297;54.022;10.760;2023-04-20T00:10:42;102401.34;;;10.14;54.36
30516;BME280;17297;54.022;10.760;2023-04-20T00:13:07;102426.03;;;10.09;53.70
30516;BME280;17297;54.022;10.760;2023-04-20T00:15:33;102415.41;;;10.08;54.18
30516;BME280;17297;54.022;10.760;2023-04-20T00:17:58;102426.84;;;9.82;53.98
30516;BME280;17297;54.022;10.760;2023-04-20T00:20:23;102431.06;;;9.85;53.12
30516;BME280;17297;54.022;10.760;2023-04-20T00:22:49;102413.69;;;9.79;54.09
30516;BME280;17297;54.022;10.760;2023-04-20T00:25:14;102404.19;;;9.85;54.89
30516;BME280;17297;54.022;10.760;2023-04-20T00:27:40;102408.69;;;9.84;55.63
30516;BME280;17297;54.022;10.760;2023-04-20T00:30:05;102386.22;;;9.85;54.43
30516;BME280;17297;54.022;10.760;2023-04-20T00:32:31;102375.25;;;9.69;55.52
30516;BME280;17297;54.022;10.760;2023-04-20T00:34:56;102395.59;;;9.71;55.97
30516;BME280;17297;54.022;10.760;2023-04-20T00:37:22;102399.53;;;9.77;55.75
30516;BME280;17297;54.022;10.760;2023-04-20T00:39:50;102379.13;;;9.84;55.98
30516;BME280;17297;54.022;10.760;2023-04-20T00:42:15;102393.16;;;9.88;54.57
30516;BME280;17297;54.022;10.760;2023-04-20T00:44:40;102395.31;;;9.75;55.85
30516;BME280;17297;54.022;10.760;2023-04-20T00:47:06;102372.97;;;9.74;56.55
30516;BME280;17297;54.022;10.760;2023-04-20T00:49:31;102369.69;;;9.80;56.20
30516;BME280;17297;54.022;10.760;2023-04-20T00:51:57;102368.53;;;9.83;56.79
30516;BME280;17297;54.022;10.760;2023-04-20T00:54:23;102383.97;;;9.81;56.92
30516;BME280;17297;54.022;10.760;2023-04-20T00:56:52;102381.06;;;9.64;57.81
30516;BME280;17297;54.022;10.760;2023-04-20T00:59:19;102371.88;;;9.67;57.75
30516;BME280;17297;54.022;10.760;2023-04-20T01:01:44;102369.59;;;9.62;57.51
30516;BME280;17297;54.022;10.760;2023-04-20T01:04:10;102378.13;;;9.58;57.73
30516;BME280;17297;54.022;10.760;2023-04-20T01:06:35;102361.66;;;9.70;57.84
30516;BME280;17297;54.022;10.760;2023-04-20T01:09:01;102361.41;;;9.64;58.54
30516;BME280;17297;54.022;10.760;2023-04-20T01:11:28;102339.91;;;9.64;57.83
30516;BME280;17297;54.022;10.760;2023-04-20T01:13:54;102348.69;;;9.66;58.52
30516;BME280;17297;54.022;10.760;2023-04-20T01:16:20;102345.34;;;9.54;58.59
30516;BME280;17297;54.022;10.760;2023-04-20T01:18:48;102350.13;;;9.60;58.86
30516;BME280;17297;54.022;10.760;2023-04-20T01:21:16;102333.28;;;9.58;58.90
30516;BME280;17297;54.022;10.760;2023-04-20T01:23:42;102354.94;;;9.57;59.03
30516;BME280;17297;54.022;10.760;2023-04-20T01:26:09;102348.75;;;9.46;59.14
30516;BME280;17297;54.022;10.760;2023-04-20T01:28:35;102362.09;;;9.29;59.28
30516;BME280;17297;54.022;10.760;2023-04-20T01:31:04;102364.06;;;9.27;59.86
30516;BME280;17297;54.022;10.760;2023-04-20T01:33:30;102362.50;;;9.34;59.66
30516;BME280;17297;54.022;10.760;2023-04-20T01:35:56;102347.22;;;9.34;59.85
30516;BME280;17297;54.022;10.760;2023-04-20T01:38:22;102350.50;;;9.38;60.08
30516;BME280;17297;54.022;10.760;2023-04-20T01:40:47;102360.66;;;9.44;59.77
30516;BME280;17297;54.022;10.760;2023-04-20T01:43:14;102331.09;;;9.34;59.52
30516;BME280;17297;54.022;10.760;2023-04-20T01:45:39;102347.44;;;9.13;60.64
30516;BME280;17297;54.022;10.760;2023-04-20T01:48:05;102342.72;;;9.35;60.29
30516;BME280;17297;54.022;10.760;2023-04-20T01:50:31;102339.03;;;9.36;60.28
30516;BME280;17297;54.022;10.760;2023-04-20T01:52:56;102346.00;;;9.29;60.53
30516;BME280;17297;54.022;10.760;2023-04-20T01:55:22;102352.81;;;9.13;60.93
30516;BME280;17297;54.022;10.760;2023-04-20T01:57:47;102348.09;;;9.25;60.51
30516;BME280;17297;54.022;10.760;2023-04-20T02:00:13;102334.41;;;9.18;61.10
30516;BME280;17297;54.022;10.760;2023-04-20T02:02:41;102302.03;;;9.30;60.84
30516;BME280;17297;54.022;10.760;2023-04-20T02:05:07;102326.50;;;9.17;60.75
30516;BME280;17297;54.022;10.760;2023-04-20T02:07:33;102319.88;;;9.11;61.28
30516;BME280;17297;54.022;10.760;2023-04-20T02:09:58;102324.81;;;9.16;61.08
30516;BME280;17297;54.022;10.760;2023-04-20T02:12:23;102338.25;;;9.16;61.65
30516;BME280;17297;54.022;10.760;2023-04-20T02:14:49;102314.34;;;9.22;61.75
30516;BME280;17297;54.022;10.760;2023-04-20T02:17:14;102314.63;;;9.19;61.34
30516;BME280;17297;54.022;10.760;2023-04-20T02:19:39;102298.53;;;9.19;62.20
30516;BME280;17297;54.022;10.760;2023-04-20T02:22:05;102302.19;;;9.18;62.57
30516;BME280;17297;54.022;10.760;2023-04-20T02:24:31;102300.66;;;9.16;62.04
30516;BME280;17297;54.022;10.760;2023-04-20T02:26:56;102307.84;;;9.15;61.83
30516;BME280;17297;54.022;10.760;2023-04-20T02:29:23;102288.50;;;9.12;62.42
30516;BME280;17297;54.022;10.760;2023-04-20T02:31:48;102284.59;;;8.96;62.93
30516;BME280;17297;54.022;10.760;2023-04-20T02:34:14;102309.84;;;9.13;62.82
30516;BME280;17297;54.022;10.760;2023-04-20T02:36:40;102284.84;;;9.13;63.03
30516;BME280;17297;54.022;10.760;2023-04-20T02:39:05;102298.72;;;8.98;63.14
30516;BME280;17297;54.022;10.760;2023-04-20T02:41:32;102293.47;;;8.97;63.78
30516;BME280;17297;54.022;10.760;2023-04-20T02:44:00;102294.50;;;8.86;63.87
30516;BME280;17297;54.022;10.760;2023-04-20T02:46:26;102295.06;;;8.90;64.15
30516;BME280;17297;54.022;10.760;2023-04-20T02:48:51;102287.84;;;8.90;64.22
30516;BME280;17297;54.022;10.760;2023-04-20T02:51:17;102272.72;;;8.99;64.44
30516;BME280;17297;54.022;10.760;2023-04-20T02:53:44;102256.03;;;9.05;64.46
30516;BME280;17297;54.022;10.760;2023-04-20T02:56:21;102264.63;;;9.09;63.85
30516;BME280;17297;54.022;10.760;2023-04-20T02:58:52;102258.16;;;9.01;64.10
30516;BME280;17297;54.022;10.760;2023-04-20T03:01:22;102264.66;;;8.99;64.81
30516;BME280;17297;54.022;10.760;2023-04-20T03:03:53;102269.63;;;9.04;64.63
30516;BME280;17297;54.022;10.760;2023-04-20T03:06:19;102266.22;;;9.01;64.99
30516;BME280;17297;54.022;10.760;2023-04-20T03:08:50;102278.13;;;8.89;65.56
30516;BME280;17297;54.022;10.760;2023-04-20T03:11:35;102275.13;;;9.02;65.58
30516;BME280;17297;54.022;10.760;2023-04-20T03:14:01;102279.38;;;8.95;65.65
30516;BME280;17297;54.022;10.760;2023-04-20T03:16:26;102273.97;;;9.05;65.49
30516;BME280;17297;54.022;10.760;2023-04-20T03:18:54;102257.88;;;9.05;65.79
30516;BME280;17297;54.022;10.760;2023-04-20T03:21:20;102269.75;;;9.02;65.66
30516;BME280;17297;54.022;10.760;2023-04-20T03:23:45;102252.63;;;9.03;66.21
30516;BME280;17297;54.022;10.760;2023-04-20T03:26:11;102272.59;;;9.00;66.47
30516;BME280;17297;54.022;10.760;2023-04-20T03:28:51;102277.53;;;8.95;66.82
30516;BME280;17297;54.022;10.760;2023-04-20T03:31:22;102271.47;;;8.93;66.79
30516;BME280;17297;54.022;10.760;2023-04-20T03:33:49;102281.63;;;8.90;67.12
30516;BME280;17297;54.022;10.760;2023-04-20T03:36:14;102280.63;;;8.91;67.12
30516;BME280;17297;54.022;10.760;2023-04-20T03:38:41;102285.63;;;8.76;67.72
30516;BME280;17297;54.022;10.760;2023-04-20T03:41:06;102282.94;;;8.86;67.78
30516;BME280;17297;54.022;10.760;2023-04-20T03:43:32;102273.59;;;8.90;68.00
30516;BME280;17297;54.022;10.760;2023-04-20T03:45:58;102267.94;;;8.93;67.62
30516;BME280;17297;54.022;10.760;2023-04-20T03:48:23;102275.28;;;8.91;67.65
30516;BME280;17297;54.022;10.760;2023-04-20T03:50:50;102277.69;;;8.84;68.07
30516;BME280;17297;54.022;10.760;2023-04-20T03:53:16;102264.97;;;8.86;68.66
30516;BME280;17297;54.022;10.760;2023-04-20T03:55:41;102270.19;;;8.88;68.74
30516;BME280;17297;54.022;10.760;2023-04-20T03:58:10;102273.16;;;8.85;69.04
30516;BME280;17297;54.022;10.760;2023-04-20T04:00:45;102284.91;;;8.74;68.98
30516;BME280;17297;54.022;10.760;2023-04-20T04:03:12;102264.31;;;8.65;69.57
30516;BME280;17297;54.022;10.760;2023-04-20T04:05:37;102254.69;;;8.82;69.38
30516;BME280;17297;54.022;10.760;2023-04-20T04:08:03;102275.84;;;8.85;68.97
30516;BME280;17297;54.022;10.760;2023-04-20T04:10:29;102262.75;;;8.72;69.41
30516;BME280;17297;54.022;10.760;2023-04-20T04:12:55;102262.63;;;8.73;69.15
30516;BME280;17297;54.022;10.760;2023-04-20T04:15:21;102270.94;;;8.70;68.95
30516;BME280;17297;54.022;10.760;2023-04-20T04:17:53;102265.13;;;8.85;69.23
30516;BME280;17297;54.022;10.760;2023-04-20T04:20:19;102254.25;;;8.86;69.11
30516;BME280;17297;54.022;10.760;2023-04-20T04:22:45;102255.84;;;8.79;69.02
30516;BME280;17297;54.022;10.760;2023-04-20T04:25:37;102251.88;;;8.73;69.37
30516;BME280;17297;54.022;10.760;2023-04-20T04:28:05;102252.72;;;8.74;69.39
30516;BME280;17297;54.022;10.760;2023-04-20T04:30:32;102249.34;;;8.82;69.27
30516;BME280;17297;54.022;10.760;2023-04-20T04:32:58;102256.94;;;8.86;69.17
30516;BME280;17297;54.022;10.760;2023-04-20T04:35:24;102266.41;;;8.81;69.43
30516;BME280;17297;54.022;10.760;2023-04-20T04:37:50;102260.63;;;8.85;69.13
30516;BME280;17297;54.022;10.760;2023-04-20T04:40:17;102263.19;;;8.67;69.62
30516;BME280;17297;54.022;10.760;2023-04-20T04:42:43;102263.44;;;8.74;69.82
30516;BME280;17297;54.022;10.760;2023-04-20T04:45:10;102259.66;;;8.76;69.80
30516;BME280;17297;54.022;10.760;2023-04-20T04:47:39;102256.97;;;8.76;69.77
30516;BME280;17297;54.022;10.760;2023-04-20T04:50:08;102252.88;;;8.72;69.76
30516;BME280;17297;54.022;10.760;2023-04-20T04:52:35;102268.25;;;8.80;69.95
30516;BME280;17297;54.022;10.760;2023-04-20T04:55:00;102274.88;;;8.86;69.45
30516;BME280;17297;54.022;10.760;2023-04-20T04:57:26;102272.47;;;8.83;69.83
30516;BME280;17297;54.022;10.760;2023-04-20T04:59:52;102263.31;;;8.85;70.06
30516;BME280;17297;54.022;10.760;2023-04-20T05:02:17;102271.50;;;8.74;70.31
30516;BME280;17297;54.022;10.760;2023-04-20T05:04:43;102276.16;;;8.82;70.39
30516;BME280;17297;54.022;10.760;2023-04-20T05:07:08;102278.00;;;8.71;70.99
30516;BME280;17297;54.022;10.760;2023-04-20T05:09:38;102269.94;;;8.71;70.99
30516;BME280;17297;54.022;10.760;2023-04-20T05:12:04;102277.16;;;8.71;71.11
30516;BME280;17297;54.022;10.760;2023-04-20T05:14:30;102285.78;;;8.65;71.24
30516;BME280;17297;54.022;10.760;2023-04-20T05:16:57;102289.56;;;8.72;71.17
30516;BME280;17297;54.022;10.760;2023-04-20T05:19:22;102295.78;;;8.63;71.78
30516;BME280;17297;54.022;10.760;2023-04-20T05:21:48;102297.63;;;8.62;71.72
30516;BME280;17297;54.022;10.760;2023-04-20T05:24:13;102292.41;;;8.70;71.57
30516;BME280;17297;54.022;10.760;2023-04-20T05:26:38;102282.09;;;8.66;71.54
30516;BME280;17297;54.022;10.760;2023-04-20T05:29:04;102293.25;;;8.61;71.75
30516;BME280;17297;54.022;10.760;2023-04-20T05:31:29;102274.06;;;8.75;71.39
30516;BME280;17297;54.022;10.760;2023-04-20T05:33:57;102277.16;;;8.71;71.59
30516;BME280;17297;54.022;10.760;2023-04-20T05:36:23;102280.28;;;8.66;71.93
30516;BME280;17297;54.022;10.760;2023-04-20T05:38:48;102281.81;;;8.69;71.98
30516;BME280;17297;54.022;10.760;2023-04-20T05:41:14;102298.06;;;8.67;71.95
30516;BME280;17297;54.022;10.760;2023-04-20T05:43:39;102298.19;;;8.66;71.92
30516;BME280;17297;54.022;10.760;2023-04-20T05:46:05;102285.78;;;8.65;72.05
30516;BME280;17297;54.022;10.760;2023-04-20T05:48:30;102281.69;;;8.70;72.08
30516;BME280;17297;54.022;10.760;2023-04-20T05:50:56;102299.34;;;8.63;72.07
30516;BME280;17297;54.022;10.760;2023-04-20T05:53:21;102300.75;;;8.58;72.44
30516;BME280;17297;54.022;10.760;2023-04-20T05:55:47;102295.97;;;8.51;72.79
30516;BME280;17297;54.022;10.760;2023-04-20T05:58:12;102316.56;;;8.61;72.50
30516;BME280;17297;54.022;10.760;2023-04-20T06:00:38;102317.97;;;8.65;72.50
30516;BME280;17297;54.022;10.760;2023-04-20T06:03:04;102315.56;;;8.62;72.60
30516;BME280;17297;54.022;10.760;2023-04-20T06:05:30;102311.59;;;8.66;72.42
30516;BME280;17297;54.022;10.760;2023-04-20T06:07:55;102302.59;;;8.67;72.41
30516;BME280;17297;54.022;10.760;2023-04-20T06:10:20;102305.28;;;8.67;72.44
30516;BME280;17297;54.022;10.760;2023-04-20T06:12:46;102310.22;;;8.62;72.64
30516;BME280;17297;54.022;10.760;2023-04-20T06:15:11;102306.81;;;8.60;72.39
30516;BME280;17297;54.022;10.760;2023-04-20T06:17:37;102303.00;;;8.62;72.41
30516;BME280;17297;54.022;10.760;2023-04-20T06:20:06;102303.28;;;8.59;72.93
30516;BME280;17297;54.022;10.760;2023-04-20T06:22:32;102305.41;;;8.55;72.79
30516;BME280;17297;54.022;10.760;2023-04-20T06:24:58;102299.63;;;8.70;72.40
30516;BME280;17297;54.022;10.760;2023-04-20T06:27:24;102300.88;;;8.56;72.74
30516;BME280;17297;54.022;10.760;2023-04-20T06:29:50;102319.66;;;8.56;72.81
30516;BME280;17297;54.022;10.760;2023-04-20T06:32:16;102313.16;;;8.68;72.92
30516;BME280;17297;54.022;10.760;2023-04-20T06:34:41;102298.47;;;8.53;72.98
30516;BME280;17297;54.022;10.760;2023-04-20T06:37:07;102307.25;;;8.55;72.94
30516;BME280;17297;54.022;10.760;2023-04-20T06:39:33;102312.47;;;8.66;72.55
30516;BME280;17297;54.022;10.760;2023-04-20T06:41:59;102300.59;;;8.69;72.48
30516;BME280;17297;54.022;10.760;2023-04-20T06:44:26;102305.66;;;8.72;72.57
30516;BME280;17297;54.022;10.760;2023-04-20T06:46:51;102292.81;;;8.66;72.64
30516;BME280;17297;54.022;10.760;2023-04-20T06:49:17;102299.75;;;8.59;72.70
30516;BME280;17297;54.022;10.760;2023-04-20T06:51:42;102303.28;;;8.59;73.01
30516;BME280;17297;54.022;10.760;2023-04-20T06:54:07;102298.34;;;8.54;73.04
30516;BME280;17297;54.022;10.760;2023-04-20T06:56:33;102297.22;;;8.57;73.02
30516;BME280;17297;54.022;10.760;2023-04-20T06:58:58;102302.44;;;8.68;72.54
30516;BME280;17297;54.022;10.760;2023-04-20T07:01:23;102308.94;;;8.75;72.65
30516;BME280;17297;54.022;10.760;2023-04-20T07:03:49;102292.53;;;8.69;72.92
30516;BME280;17297;54.022;10.760;2023-04-20T07:06:14;102291.56;;;8.79;72.52
30516;BME280;17297;54.022;10.760;2023-04-20T07:08:41;102306.66;;;8.81;72.61
30516;BME280;17297;54.022;10.760;2023-04-20T07:11:06;102310.34;;;8.79;72.44
30516;BME280;17297;54.022;10.760;2023-04-20T07:13:32;102316.56;;;8.70;73.03
30516;BME280;17297;54.022;10.760;2023-04-20T07:15:57;102302.31;;;8.70;73.15
30516;BME280;17297;54.022;10.760;2023-04-20T07:18:23;102322.50;;;8.64;73.21
30516;BME280;17297;54.022;10.760;2023-04-20T07:20:48;102305.56;;;8.64;73.26
30516;BME280;17297;54.022;10.760;2023-04-20T07:23:14;102318.81;;;8.65;73.78
30516;BME280;17297;54.022;10.760;2023-04-20T07:25:39;102326.84;;;8.75;73.08
30516;BME280;17297;54.022;10.760;2023-04-20T07:28:05;102317.69;;;8.68;73.28
30516;BME280;17297;54.022;10.760;2023-04-20T07:30:30;102324.03;;;8.76;73.16
30516;BME280;17297;54.022;10.760;2023-04-20T07:32:56;102311.91;;;8.82;73.16
30516;BME280;17297;54.022;10.760;2023-04-20T07:35:21;102313.03;;;8.79;73.31
30516;BME280;17297;54.022;10.760;2023-04-20T07:37:47;102328.13;;;8.81;73.08
30516;BME280;17297;54.022;10.760;2023-04-20T07:40:12;102330.41;;;8.75;73.47
30516;BME280;17297;54.022;10.760;2023-04-20T07:42:37;102321.47;;;8.75;73.44
30516;BME280;17297;54.022;10.760;2023-04-20T07:45:04;102328.56;;;8.76;73.35
30516;BME280;17297;54.022;10.760;2023-04-20T07:47:30;102327.72;;;8.75;73.41
30516;BME280;17297;54.022;10.760;2023-04-20T07:49:57;102350.88;;;8.76;73.43
30516;BME280;17297;54.022;10.760;2023-04-20T07:52:23;102338.28;;;8.77;73.54
30516;BME280;17297;54.022;10.760;2023-04-20T07:54:48;102339.41;;;8.84;73.21
30516;BME280;17297;54.022;10.760;2023-04-20T07:57:14;102339.28;;;8.76;73.27
30516;BME280;17297;54.022;10.760;2023-04-20T07:59:39;102345.78;;;8.73;73.54
30516;BME280;17297;54.022;10.760;2023-04-20T08:02:05;102344.66;;;8.76;73.47
30516;BME280;17297;54.022;10.760;2023-04-20T08:04:31;102351.44;;;8.80;73.96
30516;BME280;17297;54.022;10.760;2023-04-20T08:06:57;102340.97;;;8.87;73.45
30516;BME280;17297;54.022;10.760;2023-04-20T08:09:22;102346.91;;;8.90;73.14
30516;BME280;17297;54.022;10.760;2023-04-20T08:11:48;102350.28;;;9.02;73.03
30516;BME280;17297;54.022;10.760;2023-04-20T08:14:14;102346.75;;;9.01;73.11
30516;BME280;17297;54.022;10.760;2023-04-20T08:16:39;102350.13;;;8.94;73.37
30516;BME280;17297;54.022;10.760;2023-04-20T08:19:05;102355.09;;;8.89;73.37
30516;BME280;17297;54.022;10.760;2023-04-20T08:21:38;102358.50;;;9.00;73.17
30516;BME280;17297;54.022;10.760;2023-04-20T08:24:05;102360.88;;;9.04;73.02
30516;BME280;17297;54.022;10.760;2023-04-20T08:26:31;102375.72;;;8.98;73.06
30516;BME280;17297;54.022;10.760;2023-04-20T08:28:57;102389.00;;;8.90;73.33
30516;BME280;17297;54.022;10.760;2023-04-20T08:31:22;102377.72;;;8.76;73.89
30516;BME280;17297;54.022;10.760;2023-04-20T08:33:47;102385.59;;;8.88;73.72
30516;BME280;17297;54.022;10.760;2023-04-20T08:36:13;102386.75;;;8.85;73.95
30516;BME280;17297;54.022;10.760;2023-04-20T08:38:38;102390.09;;;8.97;73.40
30516;BME280;17297;54.022;10.760;2023-04-20T08:41:03;102390.00;;;8.89;74.04
30516;BME280;17297;54.022;10.760;2023-04-20T08:43:30;102386.16;;;9.01;73.23
30516;BME280;17297;54.022;10.760;2023-04-20T08:45:59;102382.50;;;9.02;73.55
30516;BME280;17297;54.022;10.760;2023-04-20T08:48:31;102386.00;;;9.02;73.55
30516;BME280;17297;54.022;10.760;2023-04-20T08:50:58;102381.50;;;9.03;73.43
30516;BME280;17297;54.022;10.760;2023-04-20T08:53:23;102391.81;;;9.08;73.81
30516;BME280;17297;54.022;10.760;2023-04-20T08:55:49;102397.31;;;9.06;73.59
30516;BME280;17297;54.022;10.760;2023-04-20T08:58:15;102389.13;;;9.08;73.81
30516;BME280;17297;54.022;10.760;2023-04-20T09:00:45;102390.94;;;9.17;73.61
30516;BME280;17297;54.022;10.760;2023-04-20T09:03:11;102384.75;;;9.16;73.65
30516;BME280;17297;54.022;10.760;2023-04-20T09:05:36;102384.56;;;9.28;73.21
30516;BME280;17297;54.022;10.760;2023-04-20T09:08:04;102390.06;;;9.36;73.11
30516;BME280;17297;54.022;10.760;2023-04-20T09:10:41;102394.03;;;9.41;73.17
30516;BME280;17297;54.022;10.760;2023-04-20T09:13:08;102388.34;;;9.44;73.03
30516;BME280;17297;54.022;10.760;2023-04-20T09:15:34;102384.09;;;9.52;72.66
30516;BME280;17297;54.022;10.760;2023-04-20T09:18:10;102383.09;;;9.53;72.87
30516;BME280;17297;54.022;10.760;2023-04-20T09:20:38;102383.50;;;9.58;72.91
30516;BME280;17297;54.022;10.760;2023-04-20T09:23:17;102368.78;;;9.62;72.84
30516;BME280;17297;54.022;10.760;2023-04-20T09:25:44;102376.53;;;9.65;72.74
30516;BME280;17297;54.022;10.760;2023-04-20T09:28:12;102381.06;;;9.64;72.67
30516;BME280;17297;54.022;10.760;2023-04-20T09:30:41;102369.03;;;9.68;72.80
30516;BME280;17297;54.022;10.760;2023-04-20T09:33:07;102376.66;;;9.73;72.76
30516;BME280;17297;54.022;10.760;2023-04-20T09:35:35;102372.84;;;9.76;72.73
30516;BME280;17297;54.022;10.760;2023-04-20T09:38:02;102387.13;;;9.76;72.61
30516;BME280;17297;54.022;10.760;2023-04-20T09:40:28;102386.81;;;9.79;72.51
30516;BME280;17297;54.022;10.760;2023-04-20T09:42:57;102376.91;;;9.80;72.69
30516;BME280;17297;54.022;10.760;2023-04-20T09:45:24;102378.28;;;9.84;72.35
30516;BME280;17297;54.022;10.760;2023-04-20T09:47:51;102370.09;;;9.85;72.47
30516;BME280;17297;54.022;10.760;2023-04-20T09:50:17;102379.72;;;9.88;72.41
30516;BME280;17297;54.022;10.760;2023-04-20T09:52:44;102381.94;;;9.92;72.41
30516;BME280;17297;54.022;10.760;2023-04-20T09:55:09;102390.25;;;9.99;72.71
30516;BME280;17297;54.022;10.760;2023-04-20T09:57:35;102381.44;;;10.07;72.72
30516;BME280;17297;54.022;10.760;2023-04-20T10:00:01;102387.06;;;10.13;72.48
30516;BME280;17297;54.022;10.760;2023-04-20T10:02:31;102386.78;;;10.16;72.25
30516;BME280;17297;54.022;10.760;2023-04-20T10:04:57;102392.69;;;10.20;72.09
30516;BME280;17297;54.022;10.760;2023-04-20T10:07:27;102395.38;;;10.20;72.09
30516;BME280;17297;54.022;10.760;2023-04-20T10:10:10;102386.47;;;10.20;72.07
30516;BME280;17297;54.022;10.760;2023-04-20T10:12:51;102387.00;;;10.23;71.81
30516;BME280;17297;54.022;10.760;2023-04-20T10:15:16;102397.59;;;10.25;71.59
30516;BME280;17297;54.022;10.760;2023-04-20T10:17:43;102395.66;;;10.27;71.72
30516;BME280;17297;54.022;10.760;2023-04-20T10:20:37;102381.38;;;10.26;71.68
30516;BME280;17297;54.022;10.760;2023-04-20T10:23:08;102372.41;;;10.26;71.72
30516;BME280;17297;54.022;10.760;2023-04-20T10:25:35;102380.50;;;10.26;71.60
30516;BME280;17297;54.022;10.760;2023-04-20T10:28:03;102360.38;;;10.30;71.68
30516;BME280;17297;54.022;10.760;2023-04-20T10:30:31;102360.25;;;10.31;71.76
30516;BME280;17297;54.022;10.760;2023-04-20T10:33:10;102358.09;;;10.35;71.66
30516;BME280;17297;54.022;10.760;2023-04-20T10:35:47;102351.56;;;10.37;71.53
30516;BME280;17297;54.022;10.760;2023-04-20T10:38:13;102350.25;;;10.42;71.69
30516;BME280;17297;54.022;10.760;2023-04-20T10:40:40;102362.25;;;10.47;71.59
30516;BME280;17297;54.022;10.760;2023-04-20T10:43:19;102362.78;;;10.51;71.90
30516;BME280;17297;54.022;10.760;2023-04-20T10:45:45;102367.69;;;10.55;71.77
30516;BME280;17297;54.022;10.760;2023-04-20T10:48:11;102375.31;;;10.60;71.61
30516;BME280;17297;54.022;10.760;2023-04-20T10:50:38;102365.22;;;10.62;71.46
30516;BME280;17297;54.022;10.760;2023-04-20T10:53:03;102378.03;;;10.60;71.05
30516;BME280;17297;54.022;10.760;2023-04-20T10:55:29;102376.31;;;10.59;71.25
30516;BME280;17297;54.022;10.760;2023-04-20T10:57:54;102371.78;;;10.59;71.34
30516;BME280;17297;54.022;10.760;2023-04-20T11:00:27;102368.78;;;10.62;71.15
30516;BME280;17297;54.022;10.760;2023-04-20T11:02:54;102376.31;;;10.59;71.05
30516;BME280;17297;54.022;10.760;2023-04-20T11:05:25;102376.56;;;10.48;71.21
30516;BME280;17297;54.022;10.760;2023-04-20T11:07:54;102378.94;;;10.51;71.46
30516;BME280;17297;54.022;10.760;2023-04-20T11:10:21;102382.28;;;10.53;71.00
30516;BME280;17297;54.022;10.760;2023-04-20T11:12:47;102375.63;;;10.57;70.85
30516;BME280;17297;54.022;10.760;2023-04-20T11:15:13;102384.69;;;10.56;70.88
30516;BME280;17297;54.022;10.760;2023-04-20T11:17:39;102385.69;;;10.55;70.96
30516;BME280;17297;54.022;10.760;2023-04-20T11:20:11;102370.88;;;10.51;71.04
30516;BME280;17297;54.022;10.760;2023-04-20T11:22:39;102377.78;;;10.53;71.03
30516;BME280;17297;54.022;10.760;2023-04-20T11:25:06;102368.78;;;10.62;71.28
30516;BME280;17297;54.022;10.760;2023-04-20T11:27:35;102372.16;;;10.64;71.39
30516;BME280;17297;54.022;10.760;2023-04-20T11:30:01;102367.94;;;10.80;71.39
30516;BME280;17297;54.022;10.760;2023-04-20T11:32:31;102373.25;;;10.72;71.27
30516;BME280;17297;54.022;10.760;2023-04-20T11:35:05;102360.16;;;10.77;71.12
30516;BME280;17297;54.022;10.760;2023-04-20T11:37:32;102360.25;;;10.85;70.81
30516;BME280;17297;54.022;10.760;2023-04-20T11:40:07;102355.00;;;10.83;70.64
30516;BME280;17297;54.022;10.760;2023-04-20T11:42:34;102356.09;;;10.91;70.20
30516;BME280;17297;54.022;10.760;2023-04-20T11:45:00;102342.94;;;10.88;70.36
30516;BME280;17297;54.022;10.760;2023-04-20T11:47:25;102355.91;;;10.92;70.03
30516;BME280;17297;54.022;10.760;2023-04-20T11:49:51;102352.22;;;10.93;70.01
30516;BME280;17297;54.022;10.760;2023-04-20T11:52:17;102344.31;;;10.92;69.89
30516;BME280;17297;54.022;10.760;2023-04-20T11:54:42;102347.13;;;10.90;69.82
30516;BME280;17297;54.022;10.760;2023-04-20T11:57:08;102353.00;;;10.85;69.74
30516;BME280;17297;54.022;10.760;2023-04-20T11:59:33;102341.72;;;10.82;69.90
30516;BME280;17297;54.022;10.760;2023-04-20T12:01:58;102351.78;;;10.80;70.00
30516;BME280;17297;54.022;10.760;2023-04-20T12:04:28;102343.56;;;10.81;69.72
30516;BME280;17297;54.022;10.760;2023-04-20T12:06:53;102337.31;;;10.81;69.86
30516;BME280;17297;54.022;10.760;2023-04-20T12:09:19;102351.94;;;10.78;69.71
30516;BME280;17297;54.022;10.760;2023-04-20T12:11:45;102358.47;;;10.76;69.72
30516;BME280;17297;54.022;10.760;2023-04-20T12:14:11;102354.94;;;10.75;69.95
30516;BME280;17297;54.022;10.760;2023-04-20T12:16:36;102358.31;;;10.77;69.91
30516;BME280;17297;54.022;10.760;2023-04-20T12:19:02;102347.72;;;10.76;69.87
30516;BME280;17297;54.022;10.760;2023-04-20T12:21:27;102350.00;;;10.71;69.89
30516;BME280;17297;54.022;10.760;2023-04-20T12:23:52;102345.41;;;10.63;69.81
30516;BME280;17297;54.022;10.760;2023-04-20T12:26:18;102340.88;;;10.63;69.97
30516;BME280;17297;54.022;10.760;2023-04-20T12:28:43;102350.41;;;10.58;70.03
30516;BME280;17297;54.022;10.760;2023-04-20T12:31:09;102344.78;;;10.51;70.17
30516;BME280;17297;54.022;10.760;2023-04-20T12:33:34;102348.50;;;10.50;70.14
30516;BME280;17297;54.022;10.760;2023-04-20T12:36:00;102335.88;;;10.51;70.22
30516;BME280;17297;54.022;10.760;2023-04-20T12:38:25;102335.72;;;10.52;70.19
30516;BME280;17297;54.022;10.760;2023-04-20T12:40:50;102333.88;;;10.53;70.42
30516;BME280;17297;54.022;10.760;2023-04-20T12:43:16;102339.41;;;10.51;70.38
30516;BME280;17297;54.022;10.760;2023-04-20T12:45:41;102337.25;;;10.55;70.68